sensor_id;sensor_type;location;lat;lon;timestamp;P1;durP1;ratioP1;P2;durP2;ratioP2
20056;SDS011;10189;49.546;7.906;2023-05-20T00:00:43;3.70;;;2.80;;
20056;SDS011;10189;49.546;7.906;2023-05-20T00:03:13;6.50;;;2.97;;
20056;SDS011;10189;49.546;7.906;2023-05-20T00:05:40;3.20;;;2.72;;
20056;SDS011;10189;49.546;7.906;2023-05-20T00:08:06;5.28;;;3.10;;
20056;SDS011;10189;49.546;7.906;2023-05-20T00:10:35;3.92;;;2.78;;
20056;SDS011;10189;49.546;7.906;2023-05-20T00:13:01;3.70;;;3.30;;
20056;SDS011;10189;49.546;7.906;2023-05-20T00:15:27;4.72;;;2.90;;
20056;SDS011;10189;49.546;7.906;2023-05-20T00:17:54;5.70;;;2.97;;
20056;SDS011;10189;49.546;7.906;2023-05-20T00:20:21;3.55;;;3.25;;
20056;SDS011;10189;49.546;7.906;2023-05-20T00:22:47;5.03;;;3.00;;
20056;SDS011;10189;49.546;7.906;2023-05-20T00:25:13;3.78;;;2.90;;
20056;SDS011;10189;49.546;7.906;2023-05-20T00:27:39;5.35;;;3.20;;
20056;SDS011;10189;49.546;7.906;2023-05-20T00:30:05;6.40;;;3.10;;
20056;SDS011;10189;49.546;7.906;2023-05-20T00:32:32;4.93;;;3.20;;
20056;SDS011;10189;49.546;7.906;2023-05-20T00:34:59;3.47;;;2.90;;
20056;SDS011;10189;49.546;7.906;2023-05-20T00:37:27;5.35;;;3.55;;
20056;SDS011;10189;49.546;7.906;2023-05-20T00:39:53;4.32;;;3.17;;
20056;SDS011;10189;49.546;7.906;2023-05-20T00:42:20;6.97;;;3.35;;
20056;SDS011;10189;49.546;7.906;2023-05-20T00:44:51;4.50;;;3.08;;
20056;SDS011;10189;49.546;7.906;2023-05-20T00:47:18;7.05;;;3.20;;
20056;SDS011;10189;49.546;7.906;2023-05-20T00:49:57;3.97;;;3.13;;
20056;SDS011;10189;49.546;7.906;2023-05-20T00:52:24;7.45;;;3.72;;
20056;SDS011;10189;49.546;7.906;2023-05-20T00:54:53;4.32;;;3.17;;
20056;SDS011;10189;49.546;7.906;2023-05-20T00:57:19;4.00;;;3.05;;
20056;SDS011;10189;49.546;7.906;2023-05-20T00:59:45;5.13;;;3.25;;
20056;SDS011;10189;49.546;7.906;2023-05-20T01:02:12;5.22;;;3.28;;
20056;SDS011;10189;49.546;7.906;2023-05-20T01:04:47;5.68;;;3.25;;
20056;SDS011;10189;49.546;7.906;2023-05-20T01:07:17;4.28;;;3.38;;
20056;SDS011;10189;49.546;7.906;2023-05-20T01:09:44;4.32;;;3.20;;
20056;SDS011;10189;49.546;7.906;2023-05-20T01:12:12;6.68;;;3.42;;
20056;SDS011;10189;49.546;7.906;2023-05-20T01:14:48;3.97;;;3.22;;
20056;SDS011;10189;49.546;7.906;2023-05-20T01:17:25;4.68;;;3.20;;
20056;SDS011;10189;49.546;7.906;2023-05-20T01:19:55;7.15;;;3.80;;
20056;SDS011;10189;49.546;7.906;2023-05-20T01:22:28;8.37;;;3.90;;
20056;SDS011;10189;49.546;7.906;2023-05-20T01:24:54;7.20;;;3.45;;
20056;SDS011;10189;49.546;7.906;2023-05-20T01:27:21;4.00;;;3.25;;
20056;SDS011;10189;49.546;7.906;2023-05-20T01:29:48;6.07;;;3.50;;
20056;SDS011;10189;49.546;7.906;2023-05-20T01:32:19;5.68;;;3.50;;
20056;SDS011;10189;49.546;7.906;2023-05-20T01:35:06;5.78;;;3.63;;
20056;SDS011;10189;49.546;7.906;2023-05-20T01:37:37;4.80;;;3.80;;
20056;SDS011;10189;49.546;7.906;2023-05-20T01:40:08;4.15;;;3.50;;
20056;SDS011;10189;49.546;7.906;2023-05-20T01:42:40;4.85;;;3.70;;
20056;SDS011;10189;49.546;7.906;2023-05-20T01:45:09;5.18;;;4.03;;
20056;SDS011;10189;49.546;7.906;2023-05-20T01:47:36;7.18;;;3.97;;
20056;SDS011;10189;49.546;7.906;2023-05-20T01:50:02;5.63;;;3.55;;
20056;SDS011;10189;49.546;7.906;2023-05-20T01:52:29;5.57;;;3.72;;
20056;SDS011;10189;49.546;7.906;2023-05-20T01:54:55;6.03;;;4.03;;
20056;SDS011;10189;49.546;7.906;2023-05-20T01:57:22;5.43;;;4.55;;
20056;SDS011;10189;49.546;7.906;2023-05-20T01:59:49;6.30;;;4.00;;
20056;SDS011;10189;49.546;7.906;2023-05-20T02:02:15;9.35;;;3.95;;
20056;SDS011;10189;49.546;7.906;2023-05-20T02:04:42;4.18;;;3.78;;
20056;SDS011;10189;49.546;7.906;2023-05-20T02:07:13;4.47;;;3.38;;
20056;SDS011;10189;49.546;7.906;2023-05-20T02:09:40;8.25;;;3.95;;
20056;SDS011;10189;49.546;7.906;2023-05-20T02:12:06;7.20;;;4.22;;
20056;SDS011;10189;49.546;7.906;2023-05-20T02:14:33;6.65;;;4.13;;
20056;SDS011;10189;49.546;7.906;2023-05-20T02:16:59;4.93;;;4.10;;
20056;SDS011;10189;49.546;7.906;2023-05-20T02:19:26;6.80;;;4.45;;
20056;SDS011;10189;49.546;7.906;2023-05-20T02:21:52;6.65;;;4.30;;
20056;SDS011;10189;49.546;7.906;2023-05-20T02:24:18;6.88;;;4.20;;
20056;SDS011;10189;49.546;7.906;2023-05-20T02:26:46;5.20;;;4.07;;
20056;SDS011;10189;49.546;7.906;2023-05-20T02:29:15;4.95;;;4.22;;
20056;SDS011;10189;49.546;7.906;2023-05-20T02:31:41;7.55;;;4.43;;
20056;SDS011;10189;49.546;7.906;2023-05-20T02:34:07;6.65;;;4.28;;
20056;SDS011;10189;49.546;7.906;2023-05-20T02:36:33;5.43;;;4.35;;
20056;SDS011;10189;49.546;7.906;2023-05-20T02:39:00;6.55;;;4.50;;
20056;SDS011;10189;49.546;7.906;2023-05-20T02:41:26;4.97;;;4.43;;
20056;SDS011;10189;49.546;7.906;2023-05-20T02:43:52;7.85;;;4.68;;
20056;SDS011;10189;49.546;7.906;2023-05-20T02:46:18;5.63;;;5.00;;
20056;SDS011;10189;49.546;7.906;2023-05-20T02:48:45;6.03;;;4.65;;
20056;SDS011;10189;49.546;7.906;2023-05-20T02:51:10;8.48;;;4.68;;
20056;SDS011;10189;49.546;7.906;2023-05-20T02:53:36;7.03;;;4.50;;
20056;SDS011;10189;49.546;7.906;2023-05-20T02:56:03;5.45;;;4.78;;
20056;SDS011;10189;49.546;7.906;2023-05-20T02:58:29;5.40;;;4.55;;
20056;SDS011;10189;49.546;7.906;2023-05-20T03:00:55;6.35;;;4.68;;
20056;SDS011;10189;49.546;7.906;2023-05-20T03:03:23;7.18;;;4.60;;
20056;SDS011;10189;49.546;7.906;2023-05-20T03:05:53;7.25;;;5.05;;
20056;SDS011;10189;49.546;7.906;2023-05-20T03:08:20;8.63;;;5.03;;
20056;SDS011;10189;49.546;7.906;2023-05-20T03:10:47;6.50;;;4.85;;
20056;SDS011;10189;49.546;7.906;2023-05-20T03:13:13;7.93;;;5.45;;
20056;SDS011;10189;49.546;7.906;2023-05-20T03:15:40;5.35;;;4.85;;
20056;SDS011;10189;49.546;7.906;2023-05-20T03:18:06;8.57;;;5.13;;
20056;SDS011;10189;49.546;7.906;2023-05-20T03:20:33;7.57;;;5.13;;
20056;SDS011;10189;49.546;7.906;2023-05-20T03:23:06;7.03;;;5.00;;
20056;SDS011;10189;49.546;7.906;2023-05-20T03:25:35;6.07;;;4.88;;
20056;SDS011;10189;49.546;7.906;2023-05-20T03:28:02;9.30;;;5.20;;
20056;SDS011;10189;49.546;7.906;2023-05-20T03:30:33;9.05;;;5.45;;
20056;SDS011;10189;49.546;7.906;2023-05-20T03:32:58;5.82;;;4.85;;
20056;SDS011;10189;49.546;7.906;2023-05-20T03:35:27;6.30;;;5.00;;
20056;SDS011;10189;49.546;7.906;2023-05-20T03:37:53;5.68;;;4.57;;
20056;SDS011;10189;49.546;7.906;2023-05-20T03:40:22;5.60;;;5.00;;
20056;SDS011;10189;49.546;7.906;2023-05-20T03:42:48;7.10;;;5.40;;
20056;SDS011;10189;49.546;7.906;2023-05-20T03:45:17;5.68;;;5.07;;
20056;SDS011;10189;49.546;7.906;2023-05-20T03:47:53;6.90;;;5.00;;
20056;SDS011;10189;49.546;7.906;2023-05-20T03:50:20;6.20;;;5.60;;
20056;SDS011;10189;49.546;7.906;2023-05-20T03:52:47;7.00;;;5.57;;
20056;SDS011;10189;49.546;7.906;2023-05-20T03:55:15;11.38;;;5.53;;
20056;SDS011;10189;49.546;7.906;2023-05-20T03:57:41;9.07;;;5.47;;
20056;SDS011;10189;49.546;7.906;2023-05-20T04:00:07;7.63;;;5.10;;
20056;SDS011;10189;49.546;7.906;2023-05-20T04:02:41;7.68;;;5.50;;
20056;SDS011;10189;49.546;7.906;2023-05-20T04:05:08;7.22;;;5.40;;
20056;SDS011;10189;49.546;7.906;2023-05-20T04:07:37;7.32;;;5.55;;
20056;SDS011;10189;49.546;7.906;2023-05-20T04:10:05;8.07;;;5.30;;
20056;SDS011;10189;49.546;7.906;2023-05-20T04:12:31;6.60;;;5.82;;
20056;SDS011;10189;49.546;7.906;2023-05-20T04:15:00;7.47;;;5.53;;
20056;SDS011;10189;49.546;7.906;2023-05-20T04:17:31;10.57;;;5.47;;
20056;SDS011;10189;49.546;7.906;2023-05-20T04:19:57;6.50;;;5.72;;
20056;SDS011;10189;49.546;7.906;2023-05-20T04:22:24;5.85;;;5.25;;
20056;SDS011;10189;49.546;7.906;2023-05-20T04:24:51;8.65;;;5.88;;
20056;SDS011;10189;49.546;7.906;2023-05-20T04:27:17;6.30;;;5.20;;
20056;SDS011;10189;49.546;7.906;2023-05-20T04:29:45;8.57;;;6.00;;
20056;SDS011;10189;49.546;7.906;2023-05-20T04:32:16;7.65;;;5.93;;
20056;SDS011;10189;49.546;7.906;2023-05-20T04:34:43;10.32;;;6.20;;
20056;SDS011;10189;49.546;7.906;2023-05-20T04:37:11;8.25;;;5.72;;
20056;SDS011;10189;49.546;7.906;2023-05-20T04:39:39;7.63;;;6.03;;
20056;SDS011;10189;49.546;7.906;2023-05-20T04:42:07;6.30;;;5.70;;
20056;SDS011;10189;49.546;7.906;2023-05-20T04:44:34;8.23;;;5.57;;
20056;SDS011;10189;49.546;7.906;2023-05-20T04:47:00;8.57;;;5.45;;
20056;SDS011;10189;49.546;7.906;2023-05-20T04:49:26;6.90;;;5.32;;
20056;SDS011;10189;49.546;7.906;2023-05-20T04:51:53;7.57;;;5.50;;
20056;SDS011;10189;49.546;7.906;2023-05-20T04:54:20;7.00;;;5.75;;
20056;SDS011;10189;49.546;7.906;2023-05-20T04:56:46;11.00;;;6.32;;
20056;SDS011;10189;49.546;7.906;2023-05-20T04:59:12;7.90;;;5.78;;
20056;SDS011;10189;49.546;7.906;2023-05-20T05:01:39;7.55;;;5.93;;
20056;SDS011;10189;49.546;7.906;2023-05-20T05:04:05;7.65;;;6.20;;
20056;SDS011;10189;49.546;7.906;2023-05-20T05:06:31;7.13;;;6.07;;
20056;SDS011;10189;49.546;7.906;2023-05-20T05:08:57;7.13;;;6.10;;
20056;SDS011;10189;49.546;7.906;2023-05-20T05:11:25;8.50;;;6.25;;
20056;SDS011;10189;49.546;7.906;2023-05-20T05:13:51;6.43;;;5.82;;
20056;SDS011;10189;49.546;7.906;2023-05-20T05:16:20;8.98;;;6.07;;
20056;SDS011;10189;49.546;7.906;2023-05-20T05:18:46;7.20;;;6.50;;
20056;SDS011;10189;49.546;7.906;2023-05-20T05:21:12;7.43;;;6.38;;
20056;SDS011;10189;49.546;7.906;2023-05-20T05:23:39;9.45;;;6.28;;
20056;SDS011;10189;49.546;7.906;2023-05-20T05:26:07;6.93;;;5.88;;
20056;SDS011;10189;49.546;7.906;2023-05-20T05:28:33;9.20;;;6.05;;
20056;SDS011;10189;49.546;7.906;2023-05-20T05:30:59;6.70;;;5.72;;
20056;SDS011;10189;49.546;7.906;2023-05-20T05:33:26;6.50;;;5.35;;
20056;SDS011;10189;49.546;7.906;2023-05-20T05:35:53;8.95;;;5.75;;
20056;SDS011;10189;49.546;7.906;2023-05-20T05:38:23;9.18;;;6.05;;
20056;SDS011;10189;49.546;7.906;2023-05-20T05:40:49;7.80;;;5.93;;
20056;SDS011;10189;49.546;7.906;2023-05-20T05:43:16;7.22;;;5.95;;
20056;SDS011;10189;49.546;7.906;2023-05-20T05:45:43;8.00;;;5.80;;
20056;SDS011;10189;49.546;7.906;2023-05-20T05:48:09;10.40;;;6.40;;
20056;SDS011;10189;49.546;7.906;2023-05-20T05:50:36;7.93;;;6.43;;
20056;SDS011;10189;49.546;7.906;2023-05-20T05:53:02;6.70;;;6.00;;
20056;SDS011;10189;49.546;7.906;2023-05-20T05:55:28;7.25;;;5.85;;
20056;SDS011;10189;49.546;7.906;2023-05-20T05:57:56;8.88;;;6.55;;
20056;SDS011;10189;49.546;7.906;2023-05-20T06:00:22;8.35;;;6.25;;
20056;SDS011;10189;49.546;7.906;2023-05-20T06:02:48;7.00;;;6.20;;
20056;SDS011;10189;49.546;7.906;2023-05-20T06:05:29;7.70;;;6.75;;
20056;SDS011;10189;49.546;7.906;2023-05-20T06:07:56;8.07;;;6.03;;
20056;SDS011;10189;49.546;7.906;2023-05-20T06:10:23;7.70;;;6.13;;
20056;SDS011;10189;49.546;7.906;2023-05-20T06:12:49;8.85;;;6.57;;
20056;SDS011;10189;49.546;7.906;2023-05-20T06:15:16;8.15;;;6.70;;
20056;SDS011;10189;49.546;7.906;2023-05-20T06:17:43;8.75;;;6.63;;
20056;SDS011;10189;49.546;7.906;2023-05-20T06:20:09;7.45;;;6.43;;
20056;SDS011;10189;49.546;7.906;2023-05-20T06:22:35;7.13;;;6.43;;
20056;SDS011;10189;49.546;7.906;2023-05-20T06:25:02;8.93;;;6.82;;
20056;SDS011;10189;49.546;7.906;2023-05-20T06:27:30;7.88;;;6.90;;
20056;SDS011;10189;49.546;7.906;2023-05-20T06:29:56;8.68;;;7.07;;
20056;SDS011;10189;49.546;7.906;2023-05-20T06:32:22;9.70;;;7.00;;
20056;SDS011;10189;49.546;7.906;2023-05-20T06:34:50;8.55;;;7.28;;
20056;SDS011;10189;49.546;7.906;2023-05-20T06:37:16;7.38;;;6.43;;
20056;SDS011;10189;49.546;7.906;2023-05-20T06:39:42;7.22;;;6.50;;
20056;SDS011;10189;49.546;7.906;2023-05-20T06:42:08;9.82;;;7.78;;
20056;SDS011;10189;49.546;7.906;2023-05-20T06:44:35;9.88;;;8.65;;
20056;SDS011;10189;49.546;7.906;2023-05-20T06:47:30;7.90;;;6.80;;
20056;SDS011;10189;49.546;7.906;2023-05-20T06:49:56;8.57;;;7.05;;
20056;SDS011;10189;49.546;7.906;2023-05-20T06:52:22;10.68;;;9.40;;
20056;SDS011;10189;49.546;7.906;2023-05-20T06:54:50;7.93;;;7.22;;
20056;SDS011;10189;49.546;7.906;2023-05-20T06:57:16;9.48;;;7.03;;
20056;SDS011;10189;49.546;7.906;2023-05-20T06:59:42;10.88;;;7.60;;
20056;SDS011;10189;49.546;7.906;2023-05-20T07:02:08;8.98;;;7.03;;
20056;SDS011;10189;49.546;7.906;2023-05-20T07:04:36;8.57;;;7.25;;
20056;SDS011;10189;49.546;7.906;2023-05-20T07:07:02;8.45;;;6.78;;
20056;SDS011;10189;49.546;7.906;2023-05-20T07:09:28;9.95;;;7.65;;
20056;SDS011;10189;49.546;7.906;2023-05-20T07:11:54;8.15;;;6.70;;
20056;SDS011;10189;49.546;7.906;2023-05-20T07:14:20;8.35;;;6.68;;
20056;SDS011;10189;49.546;7.906;2023-05-20T07:16:46;8.00;;;7.10;;
20056;SDS011;10189;49.546;7.906;2023-05-20T07:19:13;10.23;;;7.38;;
20056;SDS011;10189;49.546;7.906;2023-05-20T07:21:39;7.57;;;6.85;;
20056;SDS011;10189;49.546;7.906;2023-05-20T07:24:05;8.65;;;7.63;;
20056;SDS011;10189;49.546;7.906;2023-05-20T07:26:31;8.60;;;7.38;;
20056;SDS011;10189;49.546;7.906;2023-05-20T07:29:03;7.70;;;6.75;;
20056;SDS011;10189;49.546;7.906;2023-05-20T07:31:31;9.15;;;7.75;;
20056;SDS011;10189;49.546;7.906;2023-05-20T07:33:58;9.32;;;8.05;;
20056;SDS011;10189;49.546;7.906;2023-05-20T07:36:27;9.35;;;7.28;;
20056;SDS011;10189;49.546;7.906;2023-05-20T07:38:53;9.18;;;7.25;;
20056;SDS011;10189;49.546;7.906;2023-05-20T07:41:20;9.60;;;7.50;;
20056;SDS011;10189;49.546;7.906;2023-05-20T07:43:46;10.75;;;8.15;;
20056;SDS011;10189;49.546;7.906;2023-05-20T07:46:12;8.82;;;7.93;;
20056;SDS011;10189;49.546;7.906;2023-05-20T07:48:40;9.32;;;7.95;;
20056;SDS011;10189;49.546;7.906;2023-05-20T07:51:07;8.85;;;7.95;;
20056;SDS011;10189;49.546;7.906;2023-05-20T07:53:33;9.27;;;7.80;;
20056;SDS011;10189;49.546;7.906;2023-05-20T07:55:59;10.57;;;8.07;;
20056;SDS011;10189;49.546;7.906;2023-05-20T07:58:27;12.07;;;7.70;;
20056;SDS011;10189;49.546;7.906;2023-05-20T08:00:53;9.07;;;7.80;;
20056;SDS011;10189;49.546;7.906;2023-05-20T08:03:19;11.40;;;8.40;;
20056;SDS011;10189;49.546;7.906;2023-05-20T08:05:58;12.38;;;9.05;;
20056;SDS011;10189;49.546;7.906;2023-05-20T08:08:24;15.27;;;9.27;;
20056;SDS011;10189;49.546;7.906;2023-05-20T08:10:58;9.38;;;8.32;;
20056;SDS011;10189;49.546;7.906;2023-05-20T08:13:26;11.68;;;8.20;;
20056;SDS011;10189;49.546;7.906;2023-05-20T08:15:53;9.43;;;8.50;;
20056;SDS011;10189;49.546;7.906;2023-05-20T08:18:19;11.63;;;9.20;;
20056;SDS011;10189;49.546;7.906;2023-05-20T08:20:46;10.65;;;8.45;;
20056;SDS011;10189;49.546;7.906;2023-05-20T08:23:12;9.13;;;8.20;;
20056;SDS011;10189;49.546;7.906;2023-05-20T08:25:38;9.20;;;8.30;;
20056;SDS011;10189;49.546;7.906;2023-05-20T08:28:06;9.88;;;8.98;;
20056;SDS011;10189;49.546;7.906;2023-05-20T08:30:35;12.63;;;9.02;;
20056;SDS011;10189;49.546;7.906;2023-05-20T08:33:01;9.48;;;8.48;;
20056;SDS011;10189;49.546;7.906;2023-05-20T08:35:28;8.82;;;7.93;;
20056;SDS011;10189;49.546;7.906;2023-05-20T08:37:54;10.18;;;9.18;;
20056;SDS011;10189;49.546;7.906;2023-05-20T08:40:21;10.48;;;9.40;;
20056;SDS011;10189;49.546;7.906;2023-05-20T08:42:48;10.85;;;8.48;;
20056;SDS011;10189;49.546;7.906;2023-05-20T08:45:17;10.23;;;9.18;;
20056;SDS011;10189;49.546;7.906;2023-05-20T08:47:47;10.82;;;9.52;;
20056;SDS011;10189;49.546;7.906;2023-05-20T08:50:13;10.63;;;9.20;;
20056;SDS011;10189;49.546;7.906;2023-05-20T08:52:42;10.50;;;8.60;;
20056;SDS011;10189;49.546;7.906;2023-05-20T08:55:13;9.70;;;8.65;;
20056;SDS011;10189;49.546;7.906;2023-05-20T08:57:50;14.18;;;10.02;;
20056;SDS011;10189;49.546;7.906;2023-05-20T09:00:18;10.15;;;9.02;;
20056;SDS011;10189;49.546;7.906;2023-05-20T09:02:47;10.38;;;9.30;;
20056;SDS011;10189;49.546;7.906;2023-05-20T09:05:14;10.50;;;9.38;;
20056;SDS011;10189;49.546;7.906;2023-05-20T09:07:39;10.45;;;9.43;;
20056;SDS011;10189;49.546;7.906;2023-05-20T09:10:07;10.35;;;9.32;;
20056;SDS011;10189;49.546;7.906;2023-05-20T09:12:35;10.95;;;8.85;;
20056;SDS011;10189;49.546;7.906;2023-05-20T09:15:02;10.20;;;9.20;;
20056;SDS011;10189;49.546;7.906;2023-05-20T09:17:29;13.20;;;9.35;;
20056;SDS011;10189;49.546;7.906;2023-05-20T09:19:55;10.13;;;9.23;;
20056;SDS011;10189;49.546;7.906;2023-05-20T09:22:22;10.15;;;9.05;;
20056;SDS011;10189;49.546;7.906;2023-05-20T09:27:19;12.75;;;9.38;;
20056;SDS011;10189;49.546;7.906;2023-05-20T09:29:46;10.40;;;9.30;;
20056;SDS011;10189;49.546;7.906;2023-05-20T09:32:13;11.15;;;10.05;;
20056;SDS011;10189;49.546;7.906;2023-05-20T09:34:40;13.02;;;10.50;;
20056;SDS011;10189;49.546;7.906;2023-05-20T09:37:07;12.00;;;9.95;;
20056;SDS011;10189;49.546;7.906;2023-05-20T09:39:43;13.43;;;10.15;;
20056;SDS011;10189;49.546;7.906;2023-05-20T09:42:27;10.73;;;9.63;;
20056;SDS011;10189;49.546;7.906;2023-05-20T09:45:06;11.07;;;9.98;;
20056;SDS011;10189;49.546;7.906;2023-05-20T09:47:37;11.30;;;10.20;;
20056;SDS011;10189;49.546;7.906;2023-05-20T09:50:05;11.82;;;10.63;;
20056;SDS011;10189;49.546;7.906;2023-05-20T09:52:37;11.45;;;10.25;;
20056;SDS011;10189;49.546;7.906;2023-05-20T09:55:07;11.65;;;10.07;;
20056;SDS011;10189;49.546;7.906;2023-05-20T09:57:37;12.05;;;10.85;;
20056;SDS011;10189;49.546;7.906;2023-05-20T10:00:04;11.43;;;10.25;;
20056;SDS011;10189;49.546;7.906;2023-05-20T10:02:43;10.48;;;9.43;;
20056;SDS011;10189;49.546;7.906;2023-05-20T10:05:16;15.23;;;10.13;;
20056;SDS011;10189;49.546;7.906;2023-05-20T10:11:07;11.75;;;10.55;;
20056;SDS011;10189;49.546;7.906;2023-05-20T10:16:41;13.70;;;12.40;;
20056;SDS011;10189;49.546;7.906;2023-05-20T10:22:00;11.30;;;10.20;;
20056;SDS011;10189;49.546;7.906;2023-05-20T10:24:33;13.23;;;11.88;;
20056;SDS011;10189;49.546;7.906;2023-05-20T10:27:11;11.98;;;10.82;;
20056;SDS011;10189;49.546;7.906;2023-05-20T10:29:52;11.55;;;10.23;;
20056;SDS011;10189;49.546;7.906;2023-05-20T10:32:24;11.18;;;9.95;;
20056;SDS011;10189;49.546;7.906;2023-05-20T10:35:03;11.15;;;10.05;;
20056;SDS011;10189;49.546;7.906;2023-05-20T10:37:43;11.18;;;9.93;;
20056;SDS011;10189;49.546;7.906;2023-05-20T10:40:14;10.13;;;9.13;;
20056;SDS011;10189;49.546;7.906;2023-05-20T10:42:43;12.05;;;9.68;;
20056;SDS011;10189;49.546;7.906;2023-05-20T10:45:10;12.23;;;11.10;;
20056;SDS011;10189;49.546;7.906;2023-05-20T10:47:55;11.05;;;9.85;;
20056;SDS011;10189;49.546;7.906;2023-05-20T10:50:32;10.35;;;9.45;;
20056;SDS011;10189;49.546;7.906;2023-05-20T10:53:04;12.32;;;11.13;;
20056;SDS011;10189;49.546;7.906;2023-05-20T10:55:34;12.57;;;10.52;;
20056;SDS011;10189;49.546;7.906;2023-05-20T10:58:02;11.73;;;10.43;;
20056;SDS011;10189;49.546;7.906;2023-05-20T11:00:30;12.02;;;10.85;;
20056;SDS011;10189;49.546;7.906;2023-05-20T11:03:00;11.77;;;10.63;;
20056;SDS011;10189;49.546;7.906;2023-05-20T11:05:26;11.88;;;10.68;;
20056;SDS011;10189;49.546;7.906;2023-05-20T11:08:05;11.35;;;10.27;;
20056;SDS011;10189;49.546;7.906;2023-05-20T11:10:33;12.65;;;11.45;;
20056;SDS011;10189;49.546;7.906;2023-05-20T11:13:00;13.20;;;12.00;;
20056;SDS011;10189;49.546;7.906;2023-05-20T11:15:28;12.40;;;11.27;;
20056;SDS011;10189;49.546;7.906;2023-05-20T11:17:56;12.15;;;10.82;;
20056;SDS011;10189;49.546;7.906;2023-05-20T11:20:26;12.30;;;10.45;;
20056;SDS011;10189;49.546;7.906;2023-05-20T11:22:53;12.23;;;11.07;;
20056;SDS011;10189;49.546;7.906;2023-05-20T11:25:20;12.15;;;10.85;;
20056;SDS011;10189;49.546;7.906;2023-05-20T11:27:48;11.48;;;10.38;;
20056;SDS011;10189;49.546;7.906;2023-05-20T11:30:15;11.60;;;10.57;;
20056;SDS011;10189;49.546;7.906;2023-05-20T11:33:01;13.05;;;11.18;;
20056;SDS011;10189;49.546;7.906;2023-05-20T11:35:31;12.40;;;11.05;;
20056;SDS011;10189;49.546;7.906;2023-05-20T11:38:02;12.27;;;11.15;;
20056;SDS011;10189;49.546;7.906;2023-05-20T11:40:32;13.35;;;10.95;;
20056;SDS011;10189;49.546;7.906;2023-05-20T11:43:01;12.40;;;11.02;;
20056;SDS011;10189;49.546;7.906;2023-05-20T11:45:44;10.90;;;9.80;;
20056;SDS011;10189;49.546;7.906;2023-05-20T11:48:12;11.13;;;9.98;;
20056;SDS011;10189;49.546;7.906;2023-05-20T11:50:41;14.63;;;11.05;;
20056;SDS011;10189;49.546;7.906;2023-05-20T11:53:15;10.70;;;9.70;;
20056;SDS011;10189;49.546;7.906;2023-05-20T11:55:43;14.07;;;10.93;;
20056;SDS011;10189;49.546;7.906;2023-05-20T11:58:19;12.65;;;11.38;;
20056;SDS011;10189;49.546;7.906;2023-05-20T12:00:48;12.32;;;9.95;;
20056;SDS011;10189;49.546;7.906;2023-05-20T12:03:15;11.85;;;10.60;;
20056;SDS011;10189;49.546;7.906;2023-05-20T12:05:41;12.60;;;11.38;;
20056;SDS011;10189;49.546;7.906;2023-05-20T12:08:08;12.10;;;10.90;;
20056;SDS011;10189;49.546;7.906;2023-05-20T12:10:34;12.30;;;11.10;;
20056;SDS011;10189;49.546;7.906;2023-05-20T12:13:02;12.30;;;10.88;;
20056;SDS011;10189;49.546;7.906;2023-05-20T12:15:28;12.27;;;11.10;;
20056;SDS011;10189;49.546;7.906;2023-05-20T12:17:54;12.77;;;11.10;;
20056;SDS011;10189;49.546;7.906;2023-05-20T12:20:21;11.13;;;10.02;;
20056;SDS011;10189;49.546;7.906;2023-05-20T12:22:49;12.45;;;10.38;;
20056;SDS011;10189;49.546;7.906;2023-05-20T12:25:16;12.70;;;10.88;;
20056;SDS011;10189;49.546;7.906;2023-05-20T12:27:43;12.25;;;11.05;;
20056;SDS011;10189;49.546;7.906;2023-05-20T12:30:23;12.65;;;10.57;;
20056;SDS011;10189;49.546;7.906;2023-05-20T12:32:49;13.98;;;11.45;;
20056;SDS011;10189;49.546;7.906;2023-05-20T12:35:16;11.52;;;10.32;;
20056;SDS011;10189;49.546;7.906;2023-05-20T12:37:48;13.23;;;11.75;;
20056;SDS011;10189;49.546;7.906;2023-05-20T12:40:14;12.98;;;11.75;;
20056;SDS011;10189;49.546;7.906;2023-05-20T12:42:40;11.85;;;10.50;;
20056;SDS011;10189;49.546;7.906;2023-05-20T12:45:06;12.45;;;11.20;;
20056;SDS011;10189;49.546;7.906;2023-05-20T12:47:34;10.70;;;9.68;;
20056;SDS011;10189;49.546;7.906;2023-05-20T12:50:01;11.60;;;10.50;;
20056;SDS011;10189;49.546;7.906;2023-05-20T12:52:27;11.82;;;10.73;;
20056;SDS011;10189;49.546;7.906;2023-05-20T12:54:54;12.13;;;10.77;;
20056;SDS011;10189;49.546;7.906;2023-05-20T12:57:20;11.23;;;10.18;;
20056;SDS011;10189;49.546;7.906;2023-05-20T12:59:48;12.45;;;11.23;;
20056;SDS011;10189;49.546;7.906;2023-05-20T13:02:14;12.73;;;10.82;;
20056;SDS011;10189;49.546;7.906;2023-05-20T13:04:40;11.98;;;10.77;;
20056;SDS011;10189;49.546;7.906;2023-05-20T13:07:06;13.15;;;11.23;;
20056;SDS011;10189;49.546;7.906;2023-05-20T13:09:32;13.60;;;10.93;;
20056;SDS011;10189;49.546;7.906;2023-05-20T13:11:59;11.82;;;10.52;;
20056;SDS011;10189;49.546;7.906;2023-05-20T13:14:25;11.95;;;10.75;;
20056;SDS011;10189;49.546;7.906;2023-05-20T13:16:52;11.55;;;10.45;;
20056;SDS011;10189;49.546;7.906;2023-05-20T13:19:22;11.13;;;10.00;;
20056;SDS011;10189;49.546;7.906;2023-05-20T13:21:49;11.05;;;10.02;;
20056;SDS011;10189;49.546;7.906;2023-05-20T13:24:18;11.60;;;10.50;;
20056;SDS011;10189;49.546;7.906;2023-05-20T13:26:44;11.63;;;10.43;;
20056;SDS011;10189;49.546;7.906;2023-05-20T13:29:10;12.38;;;10.45;;
20056;SDS011;10189;49.546;7.906;2023-05-20T13:31:37;11.43;;;10.05;;
20056;SDS011;10189;49.546;7.906;2023-05-20T13:34:03;12.68;;;11.48;;
20056;SDS011;10189;49.546;7.906;2023-05-20T13:36:30;12.50;;;11.38;;
20056;SDS011;10189;49.546;7.906;2023-05-20T13:38:56;12.52;;;11.23;;
20056;SDS011;10189;49.546;7.906;2023-05-20T13:41:22;13.57;;;11.55;;
20056;SDS011;10189;49.546;7.906;2023-05-20T13:43:50;11.73;;;10.52;;
20056;SDS011;10189;49.546;7.906;2023-05-20T13:46:16;13.85;;;11.27;;
20056;SDS011;10189;49.546;7.906;2023-05-20T13:48:42;12.25;;;11.05;;
20056;SDS011;10189;49.546;7.906;2023-05-20T13:51:08;14.00;;;10.80;;
20056;SDS011;10189;49.546;7.906;2023-05-20T13:53:34;14.35;;;10.80;;
20056;SDS011;10189;49.546;7.906;2023-05-20T13:56:00;13.82;;;10.57;;
20056;SDS011;10189;49.546;7.906;2023-05-20T13:58:27;11.63;;;10.43;;
20056;SDS011;10189;49.546;7.906;2023-05-20T14:00:53;12.13;;;10.80;;
20056;SDS011;10189;49.546;7.906;2023-05-20T14:03:18;12.23;;;10.90;;
20056;SDS011;10189;49.546;7.906;2023-05-20T14:05:44;13.23;;;11.93;;
20056;SDS011;10189;49.546;7.906;2023-05-20T14:08:11;13.38;;;11.10;;
20056;SDS011;10189;49.546;7.906;2023-05-20T14:10:37;12.27;;;11.07;;
20056;SDS011;10189;49.546;7.906;2023-05-20T14:13:03;12.82;;;11.52;;
20056;SDS011;10189;49.546;7.906;2023-05-20T14:15:29;12.45;;;11.15;;
20056;SDS011;10189;49.546;7.906;2023-05-20T14:17:56;12.50;;;11.20;;
20056;SDS011;10189;49.546;7.906;2023-05-20T14:20:22;12.07;;;10.85;;
20056;SDS011;10189;49.546;7.906;2023-05-20T14:22:50;11.57;;;10.43;;
20056;SDS011;10189;49.546;7.906;2023-05-20T14:25:16;11.73;;;10.52;;
20056;SDS011;10189;49.546;7.906;2023-05-20T14:27:43;12.98;;;11.70;;
20056;SDS011;10189;49.546;7.906;2023-05-20T14:30:09;12.55;;;11.35;;
20056;SDS011;10189;49.546;7.906;2023-05-20T14:32:35;13.25;;;12.00;;
20056;SDS011;10189;49.546;7.906;2023-05-20T14:35:01;15.68;;;12.13;;
20056;SDS011;10189;49.546;7.906;2023-05-20T14:37:28;12.30;;;11.10;;
20056;SDS011;10189;49.546;7.906;2023-05-20T14:39:54;12.25;;;11.05;;
20056;SDS011;10189;49.546;7.906;2023-05-20T14:42:21;13.18;;;11.88;;
20056;SDS011;10189;49.546;7.906;2023-05-20T14:44:47;12.15;;;10.95;;
20056;SDS011;10189;49.546;7.906;2023-05-20T14:47:13;12.82;;;11.52;;
20056;SDS011;10189;49.546;7.906;2023-05-20T14:49:43;14.77;;;12.20;;
20056;SDS011;10189;49.546;7.906;2023-05-20T14:52:10;12.98;;;11.68;;
20056;SDS011;10189;49.546;7.906;2023-05-20T14:54:36;12.85;;;11.10;;